createdAt,value
2023-03-22T00:02:40.111Z,11.50
2023-03-22T00:05:07.077Z,10.52
2023-03-22T00:07:33.597Z,10.20
2023-03-22T00:10:00.242Z,11.75
2023-03-22T00:12:26.696Z,10.50
2023-03-22T00:14:53.594Z,10.75
2023-03-22T00:17:20.077Z,12.65
2023-03-22T00:19:47.451Z,12.27
2023-03-22T00:22:14.630Z,10.50
2023-03-22T00:24:41.164Z,10.45
2023-03-22T00:27:07.662Z,10.48
2023-03-22T00:29:34.118Z,10.15
2023-03-22T00:32:00.759Z,9.43
2023-03-22T00:34:34.187Z,10.10
2023-03-22T00:37:00.730Z,9.98
2023-03-22T00:39:27.274Z,11.88
2023-03-22T00:41:53.795Z,9.45
2023-03-22T00:44:20.373Z,10.80
2023-03-22T00:46:49.357Z,9.73
2023-03-22T00:49:15.997Z,10.35
2023-03-22T00:51:42.482Z,11.73
2023-03-22T00:54:08.985Z,10.68
2023-03-22T00:56:37.613Z,11.88
2023-03-22T01:01:32.238Z,11.10
2023-03-22T01:04:05.781Z,13.00
2023-03-22T01:06:35.830Z,12.00
2023-03-22T01:09:06.726Z,10.93
2023-03-22T01:11:36.210Z,10.63
2023-03-22T01:17:00.108Z,11.18
2023-03-22T01:19:37.934Z,10.85
2023-03-22T01:22:12.469Z,11.00
2023-03-22T01:24:43.238Z,9.43
2023-03-22T01:27:19.360Z,11.75
2023-03-22T01:29:52.557Z,9.93
2023-03-22T01:32:26.842Z,10.30
2023-03-22T01:35:00.945Z,10.02
2023-03-22T01:37:30.878Z,11.70
2023-03-22T01:39:57.479Z,11.50
2023-03-22T01:45:34.920Z,10.02
2023-03-22T01:48:36.141Z,11.48
2023-03-22T01:51:25.341Z,11.48
2023-03-22T01:53:58.870Z,11.82
2023-03-22T01:56:28.715Z,12.63
2023-03-22T01:59:06.526Z,14.60
2023-03-22T02:01:39.066Z,11.45
2023-03-22T02:04:17.084Z,14.25
2023-03-22T02:06:45.986Z,11.02
2023-03-22T02:09:20.641Z,10.63
2023-03-22T02:12:22.647Z,11.05
2023-03-22T02:15:05.123Z,12.00
2023-03-22T02:17:37.736Z,11.50
2023-03-22T02:20:42.816Z,10.65
2023-03-22T02:23:12.067Z,9.30
2023-03-22T02:25:57.273Z,10.25
2023-03-22T02:28:51.804Z,10.98
2023-03-22T02:31:51.966Z,13.00
2023-03-22T02:34:46.299Z,13.70
2023-03-22T02:37:56.059Z,9.18
2023-03-22T02:40:41.861Z,10.77
2023-03-22T02:43:39.631Z,11.13
2023-03-22T02:46:11.832Z,11.27
2023-03-22T02:48:57.750Z,10.43
2023-03-22T02:51:32.804Z,12.77
2023-03-22T02:54:09.440Z,13.27
2023-03-22T02:56:55.623Z,12.40
2023-03-22T02:59:25.395Z,11.98
2023-03-22T03:01:56.755Z,15.52
2023-03-22T03:04:31.352Z,13.98
2023-03-22T03:07:04.394Z,11.57
2023-03-22T03:09:32.831Z,13.27
2023-03-22T03:11:59.372Z,14.15
2023-03-22T03:14:28.760Z,13.02
2023-03-22T03:17:03.099Z,11.55
2023-03-22T03:19:51.053Z,9.90
2023-03-22T03:22:41.053Z,11.20
2023-03-22T03:25:23.535Z,11.10
2023-03-22T03:28:08.660Z,8.70
2023-03-22T03:30:43.826Z,8.77
2023-03-22T03:35:59.764Z,7.28
2023-03-22T03:38:30.690Z,7.88
2023-03-22T03:41:05.431Z,6.97
2023-03-22T03:43:37.106Z,9.93
2023-03-22T03:46:03.665Z,8.65
2023-03-22T03:48:33.682Z,10.07
2023-03-22T03:51:01.879Z,11.90
2023-03-22T03:53:29.437Z,8.48
2023-03-22T03:55:56.571Z,9.77
2023-03-22T03:58:23.196Z,11.35
2023-03-22T04:00:50.179Z,9.73
2023-03-22T04:03:17.232Z,10.10
2023-03-22T04:05:44.361Z,8.85
2023-03-22T04:08:10.852Z,8.00
2023-03-22T04:10:37.453Z,11.15
2023-03-22T04:13:04.007Z,11.27
2023-03-22T04:15:30.543Z,9.30
2023-03-22T04:17:57.203Z,9.43
2023-03-22T04:20:23.699Z,9.05
2023-03-22T04:22:50.125Z,12.10
2023-03-22T04:25:18.150Z,12.18
2023-03-22T04:27:50.956Z,11.63
2023-03-22T04:30:20.009Z,12.00
2023-03-22T04:32:47.396Z,10.80
2023-03-22T04:35:14.772Z,15.80
2023-03-22T04:37:43.047Z,9.65
2023-03-22T04:40:16.501Z,12.00
2023-03-22T04:42:44.749Z,10.85
2023-03-22T04:45:13.145Z,11.60
2023-03-22T04:47:40.327Z,11.90
2023-03-22T04:50:09.945Z,10.13
2023-03-22T04:52:36.352Z,11.52
2023-03-22T04:55:02.929Z,10.15
2023-03-22T04:57:29.507Z,8.95
2023-03-22T04:59:55.969Z,11.90
2023-03-22T05:02:22.697Z,11.38
2023-03-22T05:04:49.162Z,8.98
2023-03-22T05:07:15.594Z,12.52
2023-03-22T05:09:42.072Z,11.23
2023-03-22T05:12:08.484Z,8.70
2023-03-22T05:14:34.930Z,13.00
2023-03-22T05:17:01.706Z,11.25
2023-03-22T05:19:28.121Z,9.63
2023-03-22T05:21:58.426Z,14.02
2023-03-22T05:24:25.129Z,21.83
2023-03-22T05:26:53.987Z,13.07
2023-03-22T05:29:21.410Z,11.60
2023-03-22T05:31:50.434Z,12.80
2023-03-22T05:34:16.898Z,12.07
2023-03-22T05:36:43.312Z,11.98
2023-03-22T05:39:09.710Z,14.50
2023-03-22T05:41:36.988Z,11.75
2023-03-22T05:44:04.633Z,11.57
2023-03-22T05:46:31.161Z,12.50
2023-03-22T05:48:57.848Z,11.38
2023-03-22T05:51:27.412Z,11.05
2023-03-22T05:53:54.420Z,9.77
2023-03-22T05:56:24.506Z,11.32
2023-03-22T05:58:52.053Z,10.23
2023-03-22T06:01:21.492Z,10.70
2023-03-22T06:03:48.865Z,9.98
2023-03-22T06:06:15.751Z,11.55
2023-03-22T06:08:42.699Z,13.57
2023-03-22T06:11:09.819Z,9.75
2023-03-22T06:13:37.455Z,8.15
2023-03-22T06:16:05.039Z,12.20
2023-03-22T06:18:32.980Z,8.48
2023-03-22T06:20:59.886Z,13.45
2023-03-22T06:23:26.356Z,9.55
2023-03-22T06:25:52.858Z,10.20
2023-03-22T06:28:19.396Z,10.57
2023-03-22T06:30:45.888Z,10.40
2023-03-22T06:33:12.518Z,13.65
2023-03-22T06:35:39.050Z,10.25
2023-03-22T06:38:05.774Z,8.48
2023-03-22T06:40:32.275Z,8.65
2023-03-22T06:43:01.079Z,10.38
2023-03-22T06:45:33.278Z,13.20
2023-03-22T06:48:00.820Z,11.85
2023-03-22T06:50:28.243Z,10.35
2023-03-22T06:52:55.125Z,8.70
2023-03-22T06:55:21.616Z,10.52
2023-03-22T06:57:47.990Z,9.85
2023-03-22T07:00:15.237Z,10.10
2023-03-22T07:02:41.665Z,10.48
2023-03-22T07:05:08.466Z,9.48
2023-03-22T07:07:34.980Z,8.55
2023-03-22T07:10:01.409Z,8.38
2023-03-22T07:12:27.875Z,8.50
2023-03-22T07:14:54.361Z,9.20
2023-03-22T07:17:20.897Z,9.23
2023-03-22T07:19:47.342Z,9.90
2023-03-22T07:22:13.781Z,11.80
2023-03-22T07:24:53.871Z,8.77
2023-03-22T07:27:23.048Z,11.45
2023-03-22T07:29:49.459Z,13.23
2023-03-22T07:32:16.383Z,10.85
2023-03-22T07:34:42.884Z,11.98
2023-03-22T07:37:09.564Z,9.65
2023-03-22T07:39:36.305Z,9.75
2023-03-22T07:42:06.144Z,12.65
2023-03-22T07:44:32.593Z,11.70
2023-03-22T07:46:59.061Z,8.95
2023-03-22T07:49:48.826Z,10.40
2023-03-22T07:52:15.295Z,8.57
2023-03-22T07:54:41.783Z,9.15
2023-03-22T07:57:10.936Z,10.52
2023-03-22T07:59:39.885Z,8.70
2023-03-22T08:02:06.657Z,8.70
2023-03-22T08:04:35.871Z,11.18
2023-03-22T08:07:02.586Z,11.50
2023-03-22T08:09:29.140Z,9.90
2023-03-22T08:11:55.549Z,10.13
2023-03-22T08:14:30.578Z,7.93
2023-03-22T08:17:02.015Z,9.20
2023-03-22T08:19:28.444Z,8.27
2023-03-22T08:21:54.871Z,12.13
2023-03-22T08:24:21.341Z,9.43
2023-03-22T08:26:49.652Z,11.73
2023-03-22T08:29:16.675Z,10.38
2023-03-22T08:31:43.462Z,8.85
2023-03-22T08:34:10.084Z,8.43
2023-03-22T08:36:37.891Z,7.65
2023-03-22T08:39:04.813Z,9.73
2023-03-22T08:41:31.270Z,13.13
2023-03-22T08:43:57.895Z,9.50
2023-03-22T08:46:24.320Z,9.63
2023-03-22T08:48:50.838Z,6.63
2023-03-22T08:51:22.165Z,10.00
2023-03-22T08:53:49.386Z,8.52
2023-03-22T08:56:20.057Z,8.85
2023-03-22T08:58:47.365Z,7.85
2023-03-22T09:01:15.152Z,9.95
2023-03-22T09:03:41.960Z,7.20
2023-03-22T09:06:12.521Z,8.05
2023-03-22T09:08:39.691Z,8.23
2023-03-22T09:11:09.080Z,6.78
2023-03-22T09:13:35.474Z,8.15
2023-03-22T09:16:01.918Z,6.82
2023-03-22T09:18:28.498Z,9.75
2023-03-22T09:20:54.953Z,9.00
2023-03-22T09:23:21.708Z,5.22
2023-03-22T09:25:48.627Z,5.93
2023-03-22T09:28:16.782Z,7.65
2023-03-22T09:30:44.798Z,7.13
2023-03-22T09:33:11.553Z,6.68
2023-03-22T09:35:42.783Z,5.50
2023-03-22T09:38:10.617Z,6.63
2023-03-22T09:40:43.397Z,4.90
2023-03-22T09:43:14.086Z,7.63
2023-03-22T09:45:48.301Z,5.57
2023-03-22T09:48:21.010Z,3.88
2023-03-22T09:50:53.973Z,4.60
2023-03-22T09:53:32.966Z,4.78
2023-03-22T09:56:10.590Z,4.53
2023-03-22T09:59:05.248Z,3.90
2023-03-22T10:01:41.950Z,3.97
2023-03-22T10:05:02.542Z,4.57
2023-03-22T10:07:45.681Z,3.58
2023-03-22T10:10:18.231Z,2.22
2023-03-22T10:13:00.712Z,3.22
2023-03-22T10:15:37.487Z,3.50
2023-03-22T10:18:08.082Z,2.30
2023-03-22T10:20:49.228Z,2.03
2023-03-22T10:23:28.010Z,3.97
2023-03-22T10:26:07.667Z,4.43
2023-03-22T10:28:45.262Z,4.50
2023-03-22T10:31:17.532Z,4.45
2023-03-22T10:33:59.389Z,3.47
2023-03-22T10:36:34.826Z,2.85
2023-03-22T10:39:10.342Z,2.88
2023-03-22T10:41:37.041Z,7.10
2023-03-22T10:44:06.146Z,2.97
2023-03-22T10:46:38.534Z,3.75
2023-03-22T10:49:07.241Z,4.80
2023-03-22T10:51:54.517Z,3.50
2023-03-22T10:54:22.715Z,3.58
2023-03-22T10:56:50.119Z,4.47
2023-03-22T10:59:42.271Z,1.83
2023-03-22T11:02:31.342Z,12.30
2023-03-22T11:05:04.502Z,4.38
2023-03-22T11:07:37.220Z,3.65
2023-03-22T11:10:09.625Z,2.35
2023-03-22T11:12:40.033Z,3.78
2023-03-22T11:15:07.449Z,3.83
2023-03-22T11:17:37.662Z,2.90
2023-03-22T11:20:09.928Z,3.47
2023-03-22T11:22:42.709Z,3.03
2023-03-22T11:25:26.003Z,2.70
2023-03-22T11:27:57.023Z,1.70
2023-03-22T11:30:28.711Z,3.45
2023-03-22T11:33:21.087Z,2.63
2023-03-22T11:35:54.892Z,3.60
2023-03-22T11:38:25.889Z,3.83
2023-03-22T11:40:56.966Z,3.80
2023-03-22T11:43:26.383Z,2.53
2023-03-22T11:45:56.647Z,3.83
2023-03-22T11:48:27.311Z,2.50
2023-03-22T11:51:03.599Z,2.65
2023-03-22T11:53:33.585Z,2.60
2023-03-22T11:56:00.364Z,2.38
2023-03-22T11:58:39.971Z,2.85
2023-03-22T12:01:10.213Z,3.50
2023-03-22T12:03:40.338Z,1.83
2023-03-22T12:06:23.043Z,4.07
2023-03-22T12:08:55.096Z,3.10
2023-03-22T12:11:36.244Z,3.60
2023-03-22T12:14:40.294Z,7.05
2023-03-22T12:17:14.059Z,3.30
2023-03-22T12:19:52.642Z,4.55
2023-03-22T12:22:24.800Z,3.58
2023-03-22T12:24:51.379Z,3.63
2023-03-22T12:27:25.955Z,3.42
2023-03-22T12:32:31.036Z,3.67
2023-03-22T12:35:16.090Z,3.60
2023-03-22T12:37:48.160Z,7.28
2023-03-22T12:40:21.954Z,2.83
2023-03-22T12:43:15.320Z,2.00
2023-03-22T12:45:49.332Z,4.80
2023-03-22T12:48:58.633Z,4.70
2023-03-22T12:51:25.380Z,3.92
2023-03-22T12:53:57.584Z,3.10
2023-03-22T12:56:39.665Z,4.47
2023-03-22T12:59:15.372Z,3.75
2023-03-22T13:02:16.083Z,3.28
2023-03-22T13:04:43.324Z,3.47
2023-03-22T13:07:16.573Z,2.30
2023-03-22T13:09:55.886Z,3.53
2023-03-22T13:12:23.020Z,3.67
2023-03-22T13:14:53.714Z,1.58
2023-03-22T13:17:23.129Z,7.95
2023-03-22T13:19:53.595Z,5.88
2023-03-22T13:22:27.498Z,2.83
2023-03-22T13:25:24.442Z,2.25
2023-03-22T13:28:26.481Z,3.70
2023-03-22T13:30:55.778Z,4.40
2023-03-22T13:33:28.966Z,3.25
2023-03-22T13:36:07.014Z,3.83
2023-03-22T13:38:42.737Z,3.65
2023-03-22T13:41:31.916Z,4.15
2023-03-22T13:44:01.568Z,4.10
2023-03-22T13:46:52.332Z,4.47
2023-03-22T13:49:31.524Z,4.13
2023-03-22T13:52:01.137Z,2.22
2023-03-22T13:54:47.840Z,4.35
2023-03-22T13:57:46.386Z,4.25
2023-03-22T14:00:31.522Z,2.58
2023-03-22T14:03:02.234Z,4.40
2023-03-22T14:05:32.582Z,6.10
2023-03-22T14:08:04.319Z,5.05
2023-03-22T14:10:56.706Z,6.65
2023-03-22T14:13:31.772Z,1.88
2023-03-22T14:16:33.912Z,2.50
2023-03-22T14:19:01.934Z,2.28
2023-03-22T14:21:47.014Z,2.85
